Time;durP1;ratioP1;P1;durP2;ratioP2;P2;SDS_P1;SDS_P2;PMS_P1;PMS_P2;Temp;Humidity;BMP_temperature;BMP_pressure;BME280_temperature;BME280_humidity;BME280_pressure;Samples;Min_cycle;Max_cycle;Signal;HPM_P1;HPM_P2
2022/01/20 00:03:35;;;;;;;25.05;2.72;;;1.40;99.90;;;;;;5008339;28;20057;-63
2022/01/20 00:09:43;;;;;;;19.48;2.38;;;1.40;99.90;;;;;;5023279;28;20057;-66
2022/01/20 00:25:57;;;;;;;33.97;3.40;;;1.30;99.90;;;;;;5030990;28;20041;-65
2022/01/20 00:28:40;;;;;;;20.77;3.58;;;1.30;99.90;;;;;;5030724;28;20057;-64
2022/01/20 00:33:58;;;;;;;21.45;3.35;;;1.30;99.90;;;;;;5029053;28;20041;-63
2022/01/20 00:39:04;;;;;;;32.20;3.17;;;1.30;99.90;;;;;;5021695;28;20056;-63
2022/01/20 00:41:32;;;;;;;27.30;3.38;;;1.30;99.90;;;;;;5029520;28;20041;-62
2022/01/20 00:44:00;;;;;;;27.33;3.50;;;1.20;99.90;;;;;;5030311;28;20049;-62
2022/01/20 00:46:27;;;;;;;24.92;2.83;;;1.20;99.90;;;;;;5030901;28;20049;-63
2022/01/20 00:48:55;;;;;;;17.38;3.17;;;1.20;99.90;;;;;;5029368;28;20061;-62
2022/01/20 00:51:23;;;;;;;26.15;3.17;;;1.20;99.90;;;;;;5027838;28;20046;-63
2022/01/20 00:53:51;;;;;;;27.42;3.08;;;1.20;99.90;;;;;;5021517;28;20069;-63
2022/01/20 00:56:20;;;;;;;21.55;4.18;;;1.20;99.90;;;;;;5029208;28;20052;-62
2022/01/20 00:58:48;;;;;;;19.95;3.00;;;1.10;99.90;;;;;;5030144;28;20045;-62
2022/01/20 01:01:15;;;;;;;28.08;3.80;;;1.00;99.90;;;;;;5029079;28;20045;-63
2022/01/20 01:03:43;;;;;;;18.95;2.67;;;1.10;99.90;;;;;;5025634;28;20053;-62
2022/01/20 01:08:40;;;;;;;22.15;2.70;;;1.00;99.90;;;;;;5027979;28;20580;-62
2022/01/20 01:11:08;;;;;;;28.08;2.80;;;1.10;99.90;;;;;;5029492;28;20049;-62
2022/01/20 01:13:36;;;;;;;27.00;2.70;;;1.00;99.90;;;;;;5029078;28;20041;-62
2022/01/20 01:16:07;;;;;;;22.00;3.28;;;1.00;99.90;;;;;;5030191;28;20068;-62
2022/01/20 01:21:31;;;;;;;20.58;2.83;;;0.90;99.90;;;;;;5029135;28;20049;-62
2022/01/20 01:23:58;;;;;;;23.65;3.15;;;1.00;99.90;;;;;;5020275;28;20507;-62
2022/01/20 01:26:28;;;;;;;23.00;4.25;;;0.90;99.90;;;;;;5029054;28;20049;-63
2022/01/20 01:28:56;;;;;;;40.05;4.05;;;0.90;99.90;;;;;;5029687;28;20045;-68
2022/01/20 01:31:37;;;;;;;20.90;3.85;;;0.90;99.90;;;;;;5029891;28;20052;-65
2022/01/20 01:34:07;;;;;;;25.92;2.78;;;0.80;99.90;;;;;;5028212;28;20034;-65
2022/01/20 01:39:21;;;;;;;16.65;3.05;;;0.80;99.90;;;;;;5025117;28;20080;-64
2022/01/20 01:41:49;;;;;;;20.80;2.33;;;0.80;99.90;;;;;;5028946;28;20053;-65
2022/01/20 01:44:26;;;;;;;25.50;3.80;;;0.80;99.90;;;;;;5029168;28;20056;-62
2022/01/20 01:46:58;;;;;;;17.67;3.17;;;0.80;99.90;;;;;;5012791;28;20061;-63
2022/01/20 01:49:27;;;;;;;14.85;2.45;;;0.70;99.90;;;;;;5011814;28;20060;-64
2022/01/20 01:51:55;;;;;;;17.60;2.80;;;0.70;99.90;;;;;;5025626;28;20844;-63
2022/01/20 01:54:24;;;;;;;21.80;2.80;;;0.70;99.90;;;;;;5039407;28;20052;-65
2022/01/20 01:56:52;;;;;;;21.15;3.05;;;0.70;99.90;;;;;;5027889;28;20488;-67
2022/01/20 01:59:24;;;;;;;16.27;2.55;;;0.60;99.90;;;;;;5027896;28;20511;-66
2022/01/20 02:02:12;;;;;;;17.38;2.42;;;0.60;99.90;;;;;;5018471;28;20057;-62
2022/01/20 02:04:43;;;;;;;17.65;2.65;;;0.60;99.90;;;;;;5027847;28;20404;-62
2022/01/20 02:18:50;;;;;;;35.05;3.58;;;0.40;99.90;;;;;;5027860;28;20048;-63
2022/01/20 02:21:32;;;;;;;26.92;3.17;;;0.40;99.90;;;;;;5027422;28;20048;-65
2022/01/20 02:24:01;;;;;;;;;;;0.40;99.90;;;;;;5021151;28;20052;-62
2022/01/20 02:26:29;;;;;;;24.48;2.65;;;0.40;99.90;;;;;;5011322;28;20406;-62
2022/01/20 02:28:59;;;;;;;26.13;2.67;;;0.40;99.90;;;;;;5027729;28;20049;-65
2022/01/20 02:31:27;;;;;;;26.92;4.07;;;0.40;99.90;;;;;;5022888;28;20507;-62
2022/01/20 02:33:57;;;;;;;25.38;4.03;;;0.40;99.90;;;;;;5033492;28;20053;-64
2022/01/20 02:36:28;;;;;;;26.52;2.58;;;0.40;99.90;;;;;;5034380;28;20041;-62
2022/01/20 02:39:08;;;;;;;15.93;2.33;;;0.40;99.90;;;;;;5030450;28;20037;-62
2022/01/20 02:47:14;;;;;;;24.17;3.25;;;0.40;99.90;;;;;;5029562;28;20056;-62
2022/01/20 02:49:42;;;;;;;17.92;3.70;;;0.40;99.90;;;;;;5030592;28;20405;-62
2022/01/20 02:52:10;;;;;;;36.97;4.32;;;0.40;99.90;;;;;;5030734;28;20393;-62
2022/01/20 02:54:38;;;;;;;12.68;3.03;;;0.40;99.90;;;;;;5030678;28;20082;-61
2022/01/20 02:57:06;;;;;;;16.95;2.58;;;0.40;99.90;;;;;;5030549;28;20048;-62
2022/01/20 02:59:34;;;;;;;21.17;2.85;;;0.40;99.90;;;;;;5029850;28;20473;-64
2022/01/20 03:02:04;;;;;;;31.63;3.60;;;0.40;99.90;;;;;;5030450;28;20053;-64
2022/01/20 03:04:32;;;;;;;34.13;3.47;;;0.30;99.90;;;;;;5031813;28;20056;-65
2022/01/20 03:07:05;;;;;;;30.77;3.40;;;0.30;99.90;;;;;;5030379;28;20052;-64
2022/01/20 03:09:32;;;;;;;26.17;3.20;;;0.30;99.90;;;;;;5030073;28;20499;-64
2022/01/20 03:12:01;;;;;;;19.23;2.55;;;0.30;99.90;;;;;;5031462;28;20046;-66
2022/01/20 03:14:28;;;;;;;18.60;3.47;;;0.30;99.90;;;;;;5031417;28;20045;-64
2022/01/20 03:16:57;;;;;;;22.45;2.90;;;0.20;99.90;;;;;;5031493;28;20536;-66
2022/01/20 03:19:26;;;;;;;30.13;3.20;;;0.20;99.90;;;;;;5030168;28;20056;-64
2022/01/20 03:21:54;;;;;;;28.05;4.68;;;0.20;99.90;;;;;;5030393;28;20048;-65
2022/01/20 03:24:22;;;;;;;23.02;3.55;;;0.20;99.90;;;;;;5030124;28;20048;-64
2022/01/20 03:26:50;;;;;;;20.58;3.08;;;0.10;99.90;;;;;;5030259;28;20049;-64
2022/01/20 03:29:18;;;;;;;25.80;3.67;;;0.10;99.90;;;;;;5029728;28;20065;-64
2022/01/20 03:31:46;;;;;;;29.95;3.00;;;0.10;99.90;;;;;;5030316;28;20048;-68
2022/01/20 03:34:14;;;;;;;27.58;3.58;;;0.10;99.90;;;;;;5035292;28;20046;-65
2022/01/20 03:36:48;;;;;;;25.30;3.72;;;0.10;99.90;;;;;;5034401;28;20061;-64
2022/01/20 03:39:19;;;;;;;31.52;4.05;;;0.10;99.90;;;;;;5017003;28;20046;-62
2022/01/20 03:41:47;;;;;;;27.13;3.90;;;0.10;99.90;;;;;;5017742;28;20526;-65
2022/01/20 03:44:22;;;;;;;26.52;4.07;;;0.10;99.90;;;;;;5034017;28;20045;-64
2022/01/20 03:46:50;;;;;;;35.63;4.65;;;0.10;99.90;;;;;;5035225;28;20057;-63
2022/01/20 03:49:27;;;;;;;23.08;3.92;;;0.20;99.90;;;;;;5033665;28;20041;-64
2022/01/20 03:51:57;;;;;;;46.83;4.43;;;0.20;99.90;;;;;;5033487;28;20058;-62
2022/01/20 03:54:27;;;;;;;20.48;3.70;;;0.20;99.90;;;;;;5017250;28;20049;-65
2022/01/20 03:57:16;;;;;;;25.75;3.85;;;0.10;99.90;;;;;;5034975;28;20050;-63
2022/01/20 03:59:54;;;;;;;22.75;4.03;;;0.10;99.90;;;;;;5034705;28;20045;-64
2022/01/20 04:02:41;;;;;;;26.92;3.47;;;0.10;99.90;;;;;;5033752;28;20033;-66
2022/01/20 04:05:28;;;;;;;33.85;3.67;;;0.20;99.90;;;;;;5034879;28;20049;-64
2022/01/20 04:08:41;;;;;;;18.77;2.70;;;0.20;99.90;;;;;;5033432;28;20400;-65
2022/01/20 04:11:18;;;;;;;29.10;3.20;;;0.20;99.90;;;;;;5033692;28;20049;-63
2022/01/20 04:13:45;;;;;;;16.63;2.95;;;0.20;99.90;;;;;;5034079;28;20536;-63
2022/01/20 04:16:33;;;;;;;21.70;3.00;;;0.20;99.90;;;;;;5017163;28;20054;-67
2022/01/20 04:19:10;;;;;;;33.22;3.75;;;0.20;99.90;;;;;;5036923;28;20045;-63
2022/01/20 04:21:39;;;;;;;24.25;4.40;;;0.30;99.90;;;;;;5037685;28;20056;-63
2022/01/20 04:24:08;;;;;;;36.65;4.20;;;0.40;99.90;;;;;;5033819;28;20045;-62
2022/01/20 04:26:38;;;;;;;33.90;4.75;;;0.40;99.90;;;;;;5034172;28;20067;-62
2022/01/20 04:29:13;;;;;;;32.55;3.42;;;0.50;99.90;;;;;;5032809;28;20382;-64
2022/01/20 04:31:43;;;;;;;33.25;4.05;;;0.50;99.90;;;;;;5033297;28;20053;-63
2022/01/20 04:34:11;;;;;;;39.13;4.05;;;0.60;99.90;;;;;;5033284;28;20033;-62
2022/01/20 04:36:42;;;;;;;33.67;4.45;;;0.60;99.90;;;;;;5032928;28;20048;-62
2022/01/20 04:39:16;;;;;;;30.17;4.50;;;0.60;99.90;;;;;;5033546;28;20042;-62
2022/01/20 04:41:43;;;;;;;33.33;3.42;;;0.60;99.90;;;;;;5033040;28;20413;-65
2022/01/20 04:45:06;;;;;;;19.70;3.75;;;0.60;99.90;;;;;;5032213;28;20405;-65
2022/01/20 04:58:06;;;;;;;39.47;3.97;;;0.30;99.90;;;;;;5032923;28;20048;-68
2022/01/20 05:00:35;;;;;;;25.23;4.80;;;0.30;99.90;;;;;;5032094;28;20045;-67
2022/01/20 05:03:24;;;;;;;23.88;4.15;;;0.30;99.90;;;;;;5032537;28;20037;-62
2022/01/20 05:05:53;;;;;;;37.85;4.05;;;0.20;99.90;;;;;;5031593;28;20065;-64
2022/01/20 05:08:22;;;;;;;27.25;4.90;;;0.20;99.90;;;;;;5031427;28;20496;-62
2022/01/20 05:10:54;;;;;;;23.35;4.47;;;0.10;99.90;;;;;;5031546;28;20045;-63
2022/01/20 05:13:24;;;;;;;28.77;5.45;;;0.00;99.90;;;;;;5031383;28;20042;-62
2022/01/20 05:15:52;;;;;;;24.65;5.28;;;-0.10;99.90;;;;;;5014870;28;20052;-62
2022/01/20 05:18:20;;;;;;;29.65;5.38;;;-0.20;99.90;;;;;;5032438;28;20045;-61
2022/01/20 05:20:48;;;;;;;26.77;5.05;;;-0.20;99.90;;;;;;5032464;28;20056;-62
2022/01/20 05:23:16;;;;;;;24.77;6.57;;;-0.20;99.90;;;;;;5031238;28;20042;-62
2022/01/20 05:25:45;;;;;;;30.75;6.32;;;-0.30;99.90;;;;;;5031132;28;20041;-62
2022/01/20 05:28:14;;;;;;;24.20;5.07;;;-0.30;99.90;;;;;;5030992;28;20049;-61
2022/01/20 05:30:42;;;;;;;34.08;5.50;;;-0.40;99.90;;;;;;5031433;28;20045;-61
2022/01/20 05:33:42;;;;;;;26.63;4.97;;;-0.40;99.90;;;;;;5030976;28;20045;-62
2022/01/20 05:36:10;;;;;;;19.00;5.07;;;-0.50;99.90;;;;;;5030948;28;20045;-62
2022/01/20 05:38:38;;;;;;;30.73;5.55;;;-0.50;99.90;;;;;;5030710;28;20068;-62
2022/01/20 05:41:06;;;;;;;23.95;4.80;;;-0.60;99.90;;;;;;5031072;28;20429;-62
2022/01/20 05:43:33;;;;;;;23.60;6.22;;;-0.60;99.90;;;;;;5030738;28;20046;-63
2022/01/20 05:46:04;;;;;;;20.05;5.15;;;-0.60;99.90;;;;;;4989402;28;1218217;-63
2022/01/20 05:48:35;;;;;;;31.30;6.15;;;-0.70;99.90;;;;;;4998024;28;20068;-62
2022/01/20 05:51:22;;;;;;;25.30;7.18;;;-0.70;99.90;;;;;;5019860;28;20049;-62
2022/01/20 05:53:51;;;;;;;33.20;6.32;;;-0.70;99.90;;;;;;5028470;28;20037;-63
2022/01/20 05:56:19;;;;;;;28.25;6.10;;;-0.70;99.90;;;;;;5027640;28;20049;-62
2022/01/20 05:58:47;;;;;;;33.65;7.38;;;-0.60;99.90;;;;;;5028150;28;20052;-62
2022/01/20 06:01:17;;;;;;;39.78;7.25;;;-0.70;99.90;;;;;;5028469;28;20057;-62
2022/01/20 06:03:45;;;;;;;25.27;6.03;;;-0.80;99.90;;;;;;5016514;28;20818;-62
2022/01/20 06:06:21;;;;;;;24.98;5.25;;;-0.80;99.90;;;;;;5006020;28;20054;-62
2022/01/20 06:08:49;;;;;;;25.70;5.68;;;-0.80;99.90;;;;;;5002825;28;20064;-63
2022/01/20 06:11:18;;;;;;;;;;;-0.80;99.90;;;;;;5026100;28;20046;-62
2022/01/20 06:13:48;;;;;;;20.27;4.93;;;-0.80;99.90;;;;;;5025105;28;19929;-63
2022/01/20 06:16:16;;;;;;;13.60;4.47;;;-0.80;99.90;;;;;;5025935;28;20061;-62
2022/01/20 06:18:44;;;;;;;33.65;4.90;;;-0.90;99.90;;;;;;5009410;28;20068;-62
2022/01/20 06:21:12;;;;;;;17.88;5.15;;;-0.90;99.90;;;;;;5028073;28;20041;-62
2022/01/20 06:23:40;;;;;;;28.98;5.78;;;-0.90;99.90;;;;;;5027224;28;20049;-62
2022/01/20 06:26:08;;;;;;;30.73;6.03;;;-0.90;99.90;;;;;;5028070;28;20041;-62
2022/01/20 06:28:37;;;;;;;27.88;6.07;;;-0.90;99.90;;;;;;5011295;28;20033;-62
2022/01/20 06:31:09;;;;;;;25.70;7.80;;;-0.90;99.90;;;;;;5026585;28;20034;-62
2022/01/20 06:33:37;;;;;;;46.27;7.27;;;-1.00;99.90;;;;;;5014086;28;20046;-63
2022/01/20 06:36:06;;;;;;;27.30;9.20;;;-1.00;99.90;;;;;;5005693;28;20049;-62
2022/01/20 06:38:33;;;;;;;35.47;6.25;;;-1.00;99.90;;;;;;5020172;28;20045;-62
2022/01/20 06:41:02;;;;;;;27.95;6.50;;;-1.00;99.90;;;;;;5010934;28;20049;-63
2022/01/20 06:43:34;;;;;;;24.73;7.13;;;-1.00;99.90;;;;;;5011023;28;20485;-62
2022/01/20 06:46:03;;;;;;;;;;;-1.10;99.90;;;;;;5011237;28;20053;-62
2022/01/20 06:48:50;;;;;;;28.13;8.00;;;-1.10;99.90;;;;;;5016812;28;19932;-62
2022/01/20 06:51:46;;;;;;;26.45;6.72;;;-1.10;99.90;;;;;;5008550;28;20049;-62
2022/01/20 06:54:16;;;;;;;30.65;7.22;;;-1.10;99.90;;;;;;5007800;28;20058;-66
2022/01/20 06:56:44;;;;;;;31.85;8.95;;;-1.10;99.90;;;;;;5007800;28;20042;-63
2022/01/20 06:59:17;;;;;;;30.15;6.78;;;-1.10;99.90;;;;;;5010597;28;20049;-63
2022/01/20 07:01:48;;;;;;;34.60;8.18;;;-1.10;99.90;;;;;;5028038;28;20041;-63
2022/01/20 07:04:25;;;;;;;28.73;8.63;;;-1.10;99.90;;;;;;5013594;28;20046;-66
2022/01/20 07:06:54;;;;;;;22.27;7.03;;;-1.10;99.90;;;;;;5007694;28;20057;-64
2022/01/20 07:09:41;;;;;;;23.33;6.20;;;-1.20;99.90;;;;;;5008556;28;20057;-63
2022/01/20 07:12:23;;;;;;;36.00;7.35;;;-1.20;99.90;;;;;;5012428;28;20049;-67
2022/01/20 07:14:51;;;;;;;30.00;6.10;;;-1.20;99.90;;;;;;5024041;28;20413;-63
2022/01/20 07:17:18;;;;;;;24.70;7.97;;;-1.20;99.90;;;;;;5025033;28;20045;-67
2022/01/20 07:19:50;;;;;;;34.55;7.35;;;-1.20;99.90;;;;;;5004346;28;20046;-64
2022/01/20 07:22:19;;;;;;;19.13;5.73;;;-1.20;99.90;;;;;;5026821;28;20525;-63
2022/01/20 07:24:49;;;;;;;29.35;8.05;;;-1.10;99.90;;;;;;5026641;28;20045;-63
2022/01/20 07:27:35;;;;;;;28.67;6.65;;;-1.10;99.90;;;;;;5023701;28;20046;-63
2022/01/20 07:30:22;;;;;;;33.70;6.43;;;-1.10;99.90;;;;;;5007267;28;20209;-63
2022/01/20 07:32:50;;;;;;;23.17;6.15;;;-1.10;99.90;;;;;;5023509;28;20042;-62
2022/01/20 07:35:20;;;;;;;35.55;7.50;;;-1.00;99.90;;;;;;5007469;28;20061;-64
2022/01/20 07:37:49;;;;;;;41.10;7.30;;;-1.00;99.90;;;;;;5026668;28;20057;-65
2022/01/20 07:40:16;;;;;;;74.43;8.48;;;-1.00;99.90;;;;;;5026126;28;20045;-66
2022/01/20 07:42:44;;;;;;;56.92;9.55;;;-1.00;99.90;;;;;;5024361;28;20053;-63
2022/01/20 07:45:28;;;;;;;68.47;9.52;;;-1.00;99.90;;;;;;5025717;28;20041;-63
2022/01/20 07:48:16;;;;;;;41.88;9.75;;;-0.90;99.90;;;;;;5015949;28;20045;-62
2022/01/20 07:50:46;;;;;;;43.30;8.50;;;-0.90;99.90;;;;;;5024980;28;20054;-70
2022/01/20 07:53:15;;;;;;;101.10;12.00;;;-0.90;99.90;;;;;;5026420;28;20037;-69
2022/01/20 07:55:43;;;;;;;75.22;10.43;;;-0.90;99.90;;;;;;5027581;28;20382;-65
2022/01/20 07:58:10;;;;;;;79.03;12.90;;;-0.90;99.90;;;;;;5022855;28;20041;-69
2022/01/20 08:00:43;;;;;;;51.08;10.05;;;-0.90;99.90;;;;;;5023449;28;20045;-70
2022/01/20 08:03:12;;;;;;;64.38;11.32;;;-0.90;99.90;;;;;;5056057;28;20048;-63
2022/01/20 08:05:50;;;;;;;74.95;12.80;;;-0.90;99.90;;;;;;5004038;28;20046;-62
2022/01/20 08:08:22;;;;;;;59.60;9.95;;;-1.00;99.90;;;;;;5017130;28;20050;-62
2022/01/20 08:11:10;;;;;;;79.55;9.95;;;-1.00;99.90;;;;;;5024713;28;20049;-62
2022/01/20 08:13:37;;;;;;;93.78;9.90;;;-1.10;99.90;;;;;;5023381;28;20052;-62
2022/01/20 08:16:05;;;;;;;72.45;10.38;;;-1.10;99.90;;;;;;5023203;28;20408;-63
2022/01/20 08:18:34;;;;;;;47.60;10.43;;;-1.10;99.90;;;;;;5024522;28;20042;-64
2022/01/20 08:21:02;;;;;;;50.63;10.40;;;-1.10;99.90;;;;;;5029480;28;20049;-66
2022/01/20 08:23:30;;;;;;;31.20;9.50;;;-1.10;99.90;;;;;;5029667;28;20069;-62
2022/01/20 08:25:57;;;;;;;49.97;11.23;;;-1.10;99.90;;;;;;5029226;28;20378;-61
2022/01/20 08:28:27;;;;;;;55.53;11.20;;;-1.10;99.90;;;;;;5013443;28;20056;-61
2022/01/20 08:30:55;;;;;;;69.75;12.90;;;-1.10;99.90;;;;;;5030052;28;20444;-61
2022/01/20 08:33:23;;;;;;;102.55;12.20;;;-1.20;99.90;;;;;;5029416;28;20049;-63
2022/01/20 08:36:05;;;;;;;115.85;17.35;;;-1.20;99.90;;;;;;5010094;28;20042;-61
2022/01/20 08:38:49;;;;;;;104.18;11.55;;;-1.20;99.90;;;;;;5024227;28;20050;-67
2022/01/20 08:41:18;;;;;;;93.28;11.77;;;-1.20;99.90;;;;;;5029804;28;20049;-65
2022/01/20 08:43:45;;;;;;;129.60;14.27;;;-1.20;99.90;;;;;;5030603;28;20053;-62
2022/01/20 08:46:19;;;;;;;76.70;12.70;;;-1.20;99.90;;;;;;5012996;28;20623;-62
2022/01/20 08:48:47;;;;;;;138.75;14.25;;;-1.20;99.90;;;;;;5028029;28;20060;-62
2022/01/20 08:51:21;;;;;;;66.50;9.88;;;-1.20;99.90;;;;;;4994366;28;20046;-61
2022/01/20 08:53:56;;;;;;;84.45;12.10;;;-1.20;99.90;;;;;;5026143;28;20045;-61
2022/01/20 08:56:28;;;;;;;37.25;11.23;;;-1.20;99.90;;;;;;5030723;28;20485;-61
2022/01/20 08:58:56;;;;;;;50.97;11.98;;;-1.10;99.90;;;;;;5029765;28;20476;-61
2022/01/20 09:01:24;;;;;;;32.33;11.40;;;-1.10;99.90;;;;;;5030174;28;20038;-61
2022/01/20 09:03:52;;;;;;;35.35;12.25;;;-1.10;99.90;;;;;;5011688;28;20069;-62
2022/01/20 09:06:20;;;;;;;41.63;12.13;;;-1.10;99.90;;;;;;5009758;28;20394;-62
2022/01/20 09:08:52;;;;;;;54.50;14.15;;;-1.10;99.90;;;;;;5024419;28;20136;-60
2022/01/20 09:11:23;;;;;;;57.38;14.07;;;-1.10;99.90;;;;;;5030220;28;20421;-61
2022/01/20 09:16:46;;;;;;;56.67;15.60;;;-1.00;99.90;;;;;;5029179;28;20042;-62
2022/01/20 09:19:17;;;;;;;44.00;15.10;;;-1.00;99.90;;;;;;5024942;28;20670;-61
2022/01/20 09:21:55;;;;;;;44.22;14.35;;;-0.90;99.90;;;;;;5025739;28;20498;-61
2022/01/20 09:24:23;;;;;;;49.40;16.75;;;-0.70;99.90;;;;;;5028830;28;20485;-62
2022/01/20 09:26:53;;;;;;;49.35;16.40;;;-0.60;99.90;;;;;;5029193;28;20052;-64
2022/01/20 09:29:22;;;;;;;60.28;19.27;;;-0.50;99.90;;;;;;5011137;28;20145;-61
2022/01/20 09:31:51;;;;;;;44.22;18.48;;;-0.30;99.90;;;;;;5012408;28;20054;-63
2022/01/20 09:34:24;;;;;;;57.17;20.98;;;-0.30;99.90;;;;;;5024571;28;20050;-64
2022/01/20 09:36:52;;;;;;;65.13;27.00;;;-0.10;99.90;;;;;;5009087;28;20042;-61
2022/01/20 09:39:21;;;;;;;70.85;29.48;;;0.00;99.90;;;;;;5011198;28;20045;-63
2022/01/20 09:42:00;;;;;;;57.53;22.77;;;0.10;99.90;;;;;;5028830;28;20414;-63
2022/01/20 09:44:32;;;;;;;35.05;12.93;;;0.20;99.90;;;;;;4994075;28;20054;-64
2022/01/20 09:47:00;;;;;;;28.27;7.60;;;0.30;99.90;;;;;;5030408;28;20045;-62
2022/01/20 09:50:00;;;;;;;30.83;7.47;;;0.30;99.90;;;;;;5011156;28;20058;-63
2022/01/20 09:52:36;;;;;;;35.15;8.65;;;0.40;99.90;;;;;;5014016;28;20048;-68
2022/01/20 09:55:32;;;;;;;31.90;7.53;;;0.40;99.90;;;;;;5028854;28;20065;-65
2022/01/20 09:58:02;;;;;;;24.42;6.85;;;0.50;99.90;;;;;;5012257;28;20665;-65
2022/01/20 10:00:30;;;;;;;24.15;6.68;;;0.60;99.90;;;;;;5029211;28;20057;-68
2022/01/20 10:03:08;;;;;;;26.70;7.85;;;0.60;99.90;;;;;;5024996;28;20056;-62
2022/01/20 10:05:54;;;;;;;26.08;8.63;;;0.70;99.90;;;;;;4997392;28;20049;-61
2022/01/20 10:08:26;;;;;;;32.45;9.48;;;0.80;99.90;;;;;;5002793;28;20072;-62
2022/01/20 10:11:17;;;;;;;34.60;9.93;;;0.90;99.90;;;;;;5029401;28;20489;-63
2022/01/20 10:14:02;;;;;;;21.35;6.60;;;0.90;99.90;;;;;;5011819;28;20137;-64
2022/01/20 10:16:56;;;;;;;24.63;7.57;;;1.00;99.90;;;;;;5027221;28;20464;-62
2022/01/20 10:19:31;;;;;;;22.45;6.95;;;1.10;99.90;;;;;;5025952;28;20041;-61
2022/01/20 10:22:23;;;;;;;20.48;4.97;;;1.20;99.90;;;;;;5042613;28;20043;-61
2022/01/20 10:25:11;;;;;;;22.65;7.20;;;1.20;99.90;;;;;;5024858;28;20045;-62
2022/01/20 10:27:59;;;;;;;18.52;5.43;;;1.40;99.90;;;;;;5042022;28;20053;-61
2022/01/20 10:30:29;;;;;;;15.90;5.53;;;1.40;99.90;;;;;;5022297;28;20029;-61
2022/01/20 10:33:00;;;;;;;17.90;6.93;;;1.50;99.90;;;;;;5027548;28;20489;-61
2022/01/20 10:35:36;;;;;;;18.52;5.78;;;1.60;99.90;;;;;;5017674;28;20041;-61
2022/01/20 10:38:14;;;;;;;19.67;5.10;;;1.60;99.90;;;;;;5016348;28;20386;-61
2022/01/20 10:40:57;;;;;;;13.35;5.00;;;1.70;99.90;;;;;;5007187;28;20045;-61
2022/01/20 10:43:32;;;;;;;16.38;3.75;;;1.80;99.90;;;;;;5027217;28;20045;-62
2022/01/20 10:46:13;;;;;;;12.98;3.13;;;1.80;99.90;;;;;;5027166;28;20053;-61
2022/01/20 10:48:41;;;;;;;18.80;3.40;;;1.90;99.90;;;;;;5026611;28;20037;-62
2022/01/20 10:51:18;;;;;;;;;;;1.90;99.90;;;;;;5014354;28;20076;-61
2022/01/20 10:54:16;;;;;;;14.60;3.23;;;2.00;99.90;;;;;;5023839;28;20325;-63
2022/01/20 10:56:57;;;;;;;13.23;3.10;;;2.10;99.90;;;;;;5026320;28;20501;-63
2022/01/20 10:59:25;;;;;;;16.15;3.22;;;2.10;99.90;;;;;;5023070;28;20049;-62
2022/01/20 11:02:08;;;;;;;10.45;2.72;;;2.20;99.90;;;;;;5027528;28;20056;-62
2022/01/20 11:04:39;;;;;;;14.25;2.40;;;2.30;99.90;;;;;;5026816;28;20520;-61
2022/01/20 11:07:09;;;;;;;11.38;3.28;;;2.40;99.90;;;;;;5007845;28;20044;-61
2022/01/20 11:09:59;;;;;;;12.85;1.92;;;2.50;99.90;;;;;;5019465;28;20125;-62
2022/01/20 11:12:45;;;;;;;15.18;2.33;;;2.60;99.90;;;;;;5026827;28;20053;-62
2022/01/20 11:15:25;;;;;;;;;;;2.70;99.90;;;;;;5011361;28;20523;-63
2022/01/20 11:17:55;;;;;;;;;;;2.90;99.90;;;;;;5010865;28;19921;-62
2022/01/20 11:20:28;;;;;;;7.75;2.40;;;3.00;99.90;;;;;;5020077;28;19928;-62
2022/01/20 11:23:01;;;;;;;8.02;2.38;;;3.10;99.90;;;;;;4997913;28;20060;-63
2022/01/20 11:25:39;;;;;;;16.33;2.33;;;3.20;99.90;;;;;;5027177;28;20397;-61
2022/01/20 11:28:22;;;;;;;9.70;2.25;;;3.40;99.90;;;;;;5026867;28;20041;-62
2022/01/20 11:31:13;;;;;;;8.40;2.42;;;3.60;99.90;;;;;;5017021;28;20504;-61
2022/01/20 11:33:50;;;;;;;12.07;3.00;;;3.90;99.90;;;;;;5026598;28;20041;-62
2022/01/20 11:36:23;;;;;;;8.93;3.33;;;4.00;99.90;;;;;;5014071;28;20073;-60
2022/01/20 11:39:11;;;;;;;7.50;2.55;;;4.20;99.90;;;;;;5024350;28;20041;-61
2022/01/20 11:41:46;;;;;;;10.73;2.70;;;4.40;99.90;;;;;;5028069;28;20530;-64
2022/01/20 11:44:16;;;;;;;10.32;2.28;;;4.60;99.90;;;;;;5027607;28;20390;-61
2022/01/20 11:46:47;;;;;;;6.28;2.97;;;4.80;99.90;;;;;;5027929;28;20045;-63
2022/01/20 11:49:17;;;;;;;8.18;2.15;;;5.00;99.90;;;;;;5027624;28;20052;-63
2022/01/20 11:51:58;;;;;;;8.60;2.78;;;5.20;99.90;;;;;;5020152;28;20120;-62
2022/01/20 11:54:33;;;;;;;9.05;2.58;;;5.40;99.90;;;;;;5030624;28;20049;-61
2022/01/20 11:57:11;;;;;;;12.10;2.72;;;5.60;99.90;;;;;;5031617;28;20061;-62
2022/01/20 11:59:55;;;;;;;7.57;2.15;;;5.80;99.90;;;;;;5013719;28;20062;-62
2022/01/20 12:02:34;;;;;;;9.35;2.72;;;5.90;99.90;;;;;;5031401;28;20049;-63
2022/01/20 12:05:28;;;;;;;10.45;2.17;;;6.20;99.90;;;;;;5028873;28;20054;-61
2022/01/20 12:08:18;;;;;;;11.35;3.20;;;6.50;99.90;;;;;;5020299;28;20630;-64
2022/01/20 12:11:09;;;;;;;12.30;2.08;;;6.60;99.90;;;;;;5030926;28;20053;-63
2022/01/20 12:13:51;;;;;;;9.15;3.25;;;6.80;99.90;;;;;;5031267;28;20072;-62
2022/01/20 12:16:21;;;;;;;16.80;3.42;;;7.10;99.90;;;;;;5031183;28;20045;-65
2022/01/20 12:18:53;;;;;;;22.13;3.65;;;7.20;99.90;;;;;;5031071;28;20394;-62
2022/01/20 12:21:23;;;;;;;11.52;2.60;;;7.40;99.90;;;;;;5020594;28;20057;-65
2022/01/20 12:23:53;;;;;;;13.27;2.55;;;7.60;99.90;;;;;;5025413;28;20053;-64
2022/01/20 12:26:21;;;;;;;10.63;2.10;;;7.70;99.90;;;;;;5030047;28;20371;-62
2022/01/20 12:29:04;;;;;;;8.18;2.25;;;7.80;99.90;;;;;;5030936;28;20505;-63
2022/01/20 12:31:32;;;;;;;7.03;2.08;;;8.00;99.90;;;;;;5029622;28;20046;-63
2022/01/20 12:34:01;;;;;;;11.23;2.65;;;8.20;99.90;;;;;;5030893;28;20417;-65
2022/01/20 12:36:29;;;;;;;10.75;2.33;;;8.40;99.90;;;;;;5020736;28;20049;-63
2022/01/20 12:38:56;;;;;;;11.68;1.80;;;8.70;99.90;;;;;;5025354;28;20064;-66
2022/01/20 12:41:25;;;;;;;6.15;2.00;;;8.80;99.90;;;;;;5029760;28;20038;-64
2022/01/20 12:44:07;;;;;;;8.95;2.08;;;8.90;99.90;;;;;;5030677;28;20060;-65
2022/01/20 12:46:37;;;;;;;11.85;3.15;;;9.00;99.90;;;;;;5030777;28;20052;-62
2022/01/20 12:49:16;;;;;;;7.65;2.10;;;9.40;99.90;;;;;;5029324;28;20053;-64
2022/01/20 12:51:54;;;;;;;16.65;3.47;;;9.70;99.90;;;;;;5021921;28;20046;-62
2022/01/20 12:54:27;;;;;;;9.13;2.05;;;10.10;99.90;;;;;;5024373;28;20053;-62
2022/01/20 12:57:06;;;;;;;7.60;1.67;;;10.40;99.90;;;;;;5019775;28;20049;-61
2022/01/20 12:59:39;;;;;;;10.50;1.73;;;10.40;95.20;;;;;;5029868;28;20064;-64
2022/01/20 13:02:23;;;;;;;8.45;1.55;;;10.20;92.90;;;;;;5030506;28;20056;-62
2022/01/20 13:05:02;;;;;;;10.85;1.80;;;9.80;92.30;;;;;;5030277;28;20489;-62
2022/01/20 13:07:34;;;;;;;6.25;1.45;;;9.70;94.60;;;;;;5029608;28;20057;-62
2022/01/20 13:10:31;;;;;;;6.82;1.00;;;9.70;95.40;;;;;;5025443;28;20069;-61
2022/01/20 13:13:02;;;;;;;12.15;1.67;;;9.90;96.00;;;;;;5016016;28;20053;-62
2022/01/20 13:15:31;;;;;;;6.80;1.95;;;10.20;96.10;;;;;;5029966;28;20497;-62
2022/01/20 13:18:03;;;;;;;6.80;1.98;;;10.40;94.90;;;;;;5027683;28;20053;-64
2022/01/20 13:20:31;;;;;;;8.85;1.75;;;10.70;95.90;;;;;;5026987;28;20056;-62
2022/01/20 13:26:01;;;;;;;6.70;1.40;;;11.20;90.50;;;;;;5025246;28;20069;-62
2022/01/20 13:28:28;;;;;;;9.52;1.30;;;11.20;86.50;;;;;;5029185;28;20037;-62
2022/01/20 13:30:56;;;;;;;6.97;1.38;;;11.20;82.10;;;;;;5030092;28;20041;-63
2022/01/20 13:33:25;;;;;;;4.40;1.20;;;11.20;85.10;;;;;;5029846;28;20049;-62
2022/01/20 13:36:01;;;;;;;3.53;1.20;;;11.30;82.70;;;;;;5030121;28;20405;-62
2022/01/20 13:38:31;;;;;;;9.77;1.33;;;11.30;82.80;;;;;;5029524;28;20049;-62
2022/01/20 13:41:12;;;;;;;7.43;1.45;;;11.50;84.60;;;;;;5016882;28;20050;-62
2022/01/20 13:46:45;;;;;;;7.57;1.25;;;11.60;73.40;;;;;;5030021;28;20049;-62
2022/01/20 13:49:18;;;;;;;2.40;0.82;;;11.60;79.00;;;;;;5028028;28;20045;-62
2022/01/20 13:51:46;;;;;;;6.93;1.10;;;11.80;78.10;;;;;;5028391;28;20053;-61
2022/01/20 13:54:14;;;;;;;3.58;0.90;;;12.00;77.40;;;;;;5029512;28;20048;-62
2022/01/20 13:56:52;;;;;;;6.25;1.10;;;12.10;68.30;;;;;;5010310;28;20382;-62
2022/01/20 13:59:20;;;;;;;8.23;1.27;;;12.20;67.30;;;;;;5026602;28;20048;-61
2022/01/20 14:01:57;;;;;;;9.57;1.20;;;12.20;71.60;;;;;;5029073;28;20054;-62
2022/01/20 14:04:25;;;;;;;9.18;1.35;;;12.30;72.40;;;;;;5028049;28;20045;-62
2022/01/20 14:06:53;;;;;;;7.82;1.38;;;12.40;67.10;;;;;;5026144;28;20515;-62
2022/01/20 14:09:20;;;;;;;9.18;1.42;;;12.50;69.80;;;;;;5026576;28;20049;-63
2022/01/20 14:11:48;;;;;;;9.30;1.02;;;12.50;67.10;;;;;;5010270;28;20057;-62
2022/01/20 14:14:16;;;;;;;6.97;0.98;;;12.50;68.00;;;;;;5025886;28;20041;-62
2022/01/20 14:16:44;;;;;;;4.07;0.80;;;12.50;70.00;;;;;;5028060;28;20065;-63
2022/01/20 14:19:13;;;;;;;7.68;1.10;;;12.40;68.00;;;;;;5027105;28;20041;-66
2022/01/20 14:21:41;;;;;;;10.13;2.85;;;11.80;64.80;;;;;;5029140;28;20617;-63
2022/01/20 14:24:09;;;;;;;5.72;1.30;;;11.00;62.70;;;;;;5027684;28;20046;-63